sensor_id;sensor_type;location;lat;lon;timestamp;temperature;humidity
1355;DHT22;671;48.972;9.276;2022-08-26T00:01:17;21.30;99.90
1355;DHT22;671;48.972;9.276;2022-08-26T00:03:44;21.30;99.90
1355;DHT22;671;48.972;9.276;2022-08-26T00:06:10;21.30;99.90
1355;DHT22;671;48.972;9.276;2022-08-26T00:08:37;21.30;99.90
1355;DHT22;671;48.972;9.276;2022-08-26T00:11:04;21.30;99.90
1355;DHT22;671;48.972;9.276;2022-08-26T00:13:31;21.20;99.90
1355;DHT22;671;48.972;9.276;2022-08-26T00:15:58;21.20;99.90
1355;DHT22;671;48.972;9.276;2022-08-26T00:18:24;21.20;99.90
1355;DHT22;671;48.972;9.276;2022-08-26T00:20:51;21.10;99.90
1355;DHT22;671;48.972;9.276;2022-08-26T00:23:18;21.10;99.90
1355;DHT22;671;48.972;9.276;2022-08-26T00:25:45;21.10;99.90
1355;DHT22;671;48.972;9.276;2022-08-26T00:28:12;21.10;99.90
1355;DHT22;671;48.972;9.276;2022-08-26T00:30:40;21.00;99.90
1355;DHT22;671;48.972;9.276;2022-08-26T00:33:07;21.00;99.90
1355;DHT22;671;48.972;9.276;2022-08-26T00:35:34;21.00;99.90
1355;DHT22;671;48.972;9.276;2022-08-26T00:38:01;21.00;99.90
1355;DHT22;671;48.972;9.276;2022-08-26T00:40:34;20.90;99.90
1355;DHT22;671;48.972;9.276;2022-08-26T00:43:02;20.90;99.90
1355;DHT22;671;48.972;9.276;2022-08-26T00:45:39;20.90;99.90
1355;DHT22;671;48.972;9.276;2022-08-26T00:48:07;20.90;99.90
1355;DHT22;671;48.972;9.276;2022-08-26T00:50:41;20.80;99.90
1355;DHT22;671;48.972;9.276;2022-08-26T00:53:10;20.80;99.90
1355;DHT22;671;48.972;9.276;2022-08-26T00:56:05;20.80;99.90
1355;DHT22;671;48.972;9.276;2022-08-26T00:58:33;20.80;99.90
1355;DHT22;671;48.972;9.276;2022-08-26T01:01:02;20.70;99.90
1355;DHT22;671;48.972;9.276;2022-08-26T01:03:31;20.70;99.90
1355;DHT22;671;48.972;9.276;2022-08-26T01:06:00;20.60;99.90
1355;DHT22;671;48.972;9.276;2022-08-26T01:08:27;20.60;99.90
1355;DHT22;671;48.972;9.276;2022-08-26T01:10:54;20.60;99.90
1355;DHT22;671;48.972;9.276;2022-08-26T01:13:22;20.60;99.90
1355;DHT22;671;48.972;9.276;2022-08-26T01:15:51;20.60;99.90
1355;DHT22;671;48.972;9.276;2022-08-26T01:18:19;20.60;99.90
1355;DHT22;671;48.972;9.276;2022-08-26T01:23:18;20.50;99.90
1355;DHT22;671;48.972;9.276;2022-08-26T01:25:51;20.40;99.90
1355;DHT22;671;48.972;9.276;2022-08-26T01:28:27;20.40;99.90
1355;DHT22;671;48.972;9.276;2022-08-26T01:30:55;20.40;99.90
1355;DHT22;671;48.972;9.276;2022-08-26T01:33:27;20.40;99.90
1355;DHT22;671;48.972;9.276;2022-08-26T01:35:55;20.40;99.90
1355;DHT22;671;48.972;9.276;2022-08-26T01:38:22;20.40;99.90
1355;DHT22;671;48.972;9.276;2022-08-26T01:40:49;20.30;99.90
1355;DHT22;671;48.972;9.276;2022-08-26T01:43:21;20.20;99.90
1355;DHT22;671;48.972;9.276;2022-08-26T01:45:48;20.20;99.90
1355;DHT22;671;48.972;9.276;2022-08-26T01:48:19;20.20;99.90
1355;DHT22;671;48.972;9.276;2022-08-26T01:50:46;20.10;99.90
1355;DHT22;671;48.972;9.276;2022-08-26T01:53:15;20.10;99.90
1355;DHT22;671;48.972;9.276;2022-08-26T01:55:46;20.10;99.90
1355;DHT22;671;48.972;9.276;2022-08-26T01:58:24;20.10;99.90
1355;DHT22;671;48.972;9.276;2022-08-26T02:00:51;20.10;99.90
1355;DHT22;671;48.972;9.276;2022-08-26T02:03:18;20.10;99.90
1355;DHT22;671;48.972;9.276;2022-08-26T02:05:54;20.10;99.90
1355;DHT22;671;48.972;9.276;2022-08-26T02:08:42;20.00;99.90
1355;DHT22;671;48.972;9.276;2022-08-26T02:11:10;20.00;99.90
1355;DHT22;671;48.972;9.276;2022-08-26T02:13:41;20.00;99.90
1355;DHT22;671;48.972;9.276;2022-08-26T02:16:09;20.00;99.90
1355;DHT22;671;48.972;9.276;2022-08-26T02:18:38;20.00;99.90
1355;DHT22;671;48.972;9.276;2022-08-26T02:21:06;20.00;99.90
1355;DHT22;671;48.972;9.276;2022-08-26T02:23:33;19.90;99.90
1355;DHT22;671;48.972;9.276;2022-08-26T02:26:13;19.90;99.90
1355;DHT22;671;48.972;9.276;2022-08-26T02:31:15;19.90;99.90
1355;DHT22;671;48.972;9.276;2022-08-26T02:33:42;19.90;99.90
1355;DHT22;671;48.972;9.276;2022-08-26T02:36:09;19.80;99.90
1355;DHT22;671;48.972;9.276;2022-08-26T02:38:35;19.80;99.90
1355;DHT22;671;48.972;9.276;2022-08-26T02:41:02;19.80;99.90
1355;DHT22;671;48.972;9.276;2022-08-26T02:43:29;19.80;99.90
1355;DHT22;671;48.972;9.276;2022-08-26T02:45:55;19.70;99.90
1355;DHT22;671;48.972;9.276;2022-08-26T02:48:22;19.70;99.90
1355;DHT22;671;48.972;9.276;2022-08-26T02:50:48;19.70;99.90
1355;DHT22;671;48.972;9.276;2022-08-26T02:53:15;19.70;99.90
1355;DHT22;671;48.972;9.276;2022-08-26T02:55:42;19.70;99.90
1355;DHT22;671;48.972;9.276;2022-08-26T02:58:09;19.70;99.90
1355;DHT22;671;48.972;9.276;2022-08-26T03:00:37;19.70;99.90
1355;DHT22;671;48.972;9.276;2022-08-26T03:03:04;19.70;99.90
1355;DHT22;671;48.972;9.276;2022-08-26T03:05:31;19.60;99.90
1355;DHT22;671;48.972;9.276;2022-08-26T03:07:57;19.60;99.90
1355;DHT22;671;48.972;9.276;2022-08-26T03:10:24;19.50;99.90
1355;DHT22;671;48.972;9.276;2022-08-26T03:12:50;19.50;99.90
1355;DHT22;671;48.972;9.276;2022-08-26T03:15:18;19.50;99.90
1355;DHT22;671;48.972;9.276;2022-08-26T03:17:46;19.40;99.90
1355;DHT22;671;48.972;9.276;2022-08-26T03:20:14;19.40;99.90
1355;DHT22;671;48.972;9.276;2022-08-26T03:22:41;19.40;99.90
1355;DHT22;671;48.972;9.276;2022-08-26T03:25:09;19.40;99.90
1355;DHT22;671;48.972;9.276;2022-08-26T03:27:36;19.40;99.90
1355;DHT22;671;48.972;9.276;2022-08-26T03:30:03;19.40;99.90
1355;DHT22;671;48.972;9.276;2022-08-26T03:32:48;19.30;99.90
1355;DHT22;671;48.972;9.276;2022-08-26T03:35:15;19.30;99.90
1355;DHT22;671;48.972;9.276;2022-08-26T03:37:41;19.30;99.90
1355;DHT22;671;48.972;9.276;2022-08-26T03:40:09;19.30;99.90
1355;DHT22;671;48.972;9.276;2022-08-26T03:42:37;19.20;99.90
1355;DHT22;671;48.972;9.276;2022-08-26T03:45:06;19.20;99.90
1355;DHT22;671;48.972;9.276;2022-08-26T03:47:33;19.20;99.90
1355;DHT22;671;48.972;9.276;2022-08-26T03:50:00;19.20;99.90
1355;DHT22;671;48.972;9.276;2022-08-26T03:52:29;19.10;99.90
1355;DHT22;671;48.972;9.276;2022-08-26T03:54:55;19.10;99.90
1355;DHT22;671;48.972;9.276;2022-08-26T03:57:22;19.10;99.90
1355;DHT22;671;48.972;9.276;2022-08-26T03:59:48;19.10;99.90
1355;DHT22;671;48.972;9.276;2022-08-26T04:02:15;19.00;99.90
1355;DHT22;671;48.972;9.276;2022-08-26T04:04:41;19.00;99.90
1355;DHT22;671;48.972;9.276;2022-08-26T04:07:08;19.00;99.90
1355;DHT22;671;48.972;9.276;2022-08-26T04:09:34;19.00;99.90
1355;DHT22;671;48.972;9.276;2022-08-26T04:12:01;19.00;99.90
1355;DHT22;671;48.972;9.276;2022-08-26T04:14:28;18.90;99.90
1355;DHT22;671;48.972;9.276;2022-08-26T04:16:56;18.90;99.90
1355;DHT22;671;48.972;9.276;2022-08-26T04:19:25;18.90;99.90
1355;DHT22;671;48.972;9.276;2022-08-26T04:21:53;18.90;99.90
1355;DHT22;671;48.972;9.276;2022-08-26T04:24:23;18.90;99.90
1355;DHT22;671;48.972;9.276;2022-08-26T04:26:50;18.90;99.90
1355;DHT22;671;48.972;9.276;2022-08-26T04:29:20;18.90;99.90
1355;DHT22;671;48.972;9.276;2022-08-26T04:31:46;18.90;99.90
1355;DHT22;671;48.972;9.276;2022-08-26T04:34:13;18.90;99.90
1355;DHT22;671;48.972;9.276;2022-08-26T04:36:40;18.90;99.90
1355;DHT22;671;48.972;9.276;2022-08-26T04:39:09;19.00;99.90
1355;DHT22;671;48.972;9.276;2022-08-26T04:41:38;19.00;99.90
1355;DHT22;671;48.972;9.276;2022-08-26T04:44:05;19.00;99.90
1355;DHT22;671;48.972;9.276;2022-08-26T04:46:35;19.00;99.90
1355;DHT22;671;48.972;9.276;2022-08-26T04:49:02;19.00;99.90
1355;DHT22;671;48.972;9.276;2022-08-26T04:51:29;19.10;99.90
1355;DHT22;671;48.972;9.276;2022-08-26T04:53:56;19.10;99.90
1355;DHT22;671;48.972;9.276;2022-08-26T04:56:29;19.20;99.90
1355;DHT22;671;48.972;9.276;2022-08-26T04:58:56;19.30;99.90
1355;DHT22;671;48.972;9.276;2022-08-26T05:01:23;19.40;99.90
1355;DHT22;671;48.972;9.276;2022-08-26T05:03:50;19.40;99.90
1355;DHT22;671;48.972;9.276;2022-08-26T05:06:16;19.50;99.90
1355;DHT22;671;48.972;9.276;2022-08-26T05:08:44;19.60;99.90
1355;DHT22;671;48.972;9.276;2022-08-26T05:11:11;19.70;99.90
1355;DHT22;671;48.972;9.276;2022-08-26T05:13:38;20.20;99.90
1355;DHT22;671;48.972;9.276;2022-08-26T05:16:07;21.20;99.90
1355;DHT22;671;48.972;9.276;2022-08-26T05:18:35;22.00;99.90
1355;DHT22;671;48.972;9.276;2022-08-26T05:21:02;22.70;99.90
1355;DHT22;671;48.972;9.276;2022-08-26T05:23:29;23.30;99.90
1355;DHT22;671;48.972;9.276;2022-08-26T05:25:59;23.50;99.90
1355;DHT22;671;48.972;9.276;2022-08-26T05:28:27;23.20;99.90
1355;DHT22;671;48.972;9.276;2022-08-26T05:30:55;22.50;99.90
1355;DHT22;671;48.972;9.276;2022-08-26T05:33:22;22.10;99.90
1355;DHT22;671;48.972;9.276;2022-08-26T05:35:49;21.80;99.90
1355;DHT22;671;48.972;9.276;2022-08-26T05:38:18;21.70;99.90
1355;DHT22;671;48.972;9.276;2022-08-26T05:40:48;21.60;99.90
1355;DHT22;671;48.972;9.276;2022-08-26T05:43:16;21.60;99.90
1355;DHT22;671;48.972;9.276;2022-08-26T05:45:46;21.60;99.90
1355;DHT22;671;48.972;9.276;2022-08-26T05:48:14;21.60;99.90
1355;DHT22;671;48.972;9.276;2022-08-26T05:50:44;21.70;99.90
1355;DHT22;671;48.972;9.276;2022-08-26T05:53:12;21.70;99.90
1355;DHT22;671;48.972;9.276;2022-08-26T05:55:57;21.80;99.90
1355;DHT22;671;48.972;9.276;2022-08-26T05:58:26;21.80;99.90
1355;DHT22;671;48.972;9.276;2022-08-26T06:03:35;21.80;99.90
1355;DHT22;671;48.972;9.276;2022-08-26T06:06:07;21.80;99.90
1355;DHT22;671;48.972;9.276;2022-08-26T06:08:35;21.80;99.90
1355;DHT22;671;48.972;9.276;2022-08-26T06:11:05;21.80;99.90
1355;DHT22;671;48.972;9.276;2022-08-26T06:13:32;21.90;99.90
1355;DHT22;671;48.972;9.276;2022-08-26T06:16:02;21.90;99.90
1355;DHT22;671;48.972;9.276;2022-08-26T06:18:32;21.90;99.90
1355;DHT22;671;48.972;9.276;2022-08-26T06:21:15;21.90;99.90
1355;DHT22;671;48.972;9.276;2022-08-26T06:23:43;22.00;99.90
1355;DHT22;671;48.972;9.276;2022-08-26T06:26:29;22.00;99.90
1355;DHT22;671;48.972;9.276;2022-08-26T06:28:55;22.10;99.90
1355;DHT22;671;48.972;9.276;2022-08-26T06:31:23;22.10;99.90
1355;DHT22;671;48.972;9.276;2022-08-26T06:33:51;22.10;99.90
1355;DHT22;671;48.972;9.276;2022-08-26T06:36:23;22.30;99.90
1355;DHT22;671;48.972;9.276;2022-08-26T06:38:51;22.40;99.90
1355;DHT22;671;48.972;9.276;2022-08-26T06:41:19;22.40;99.90
1355;DHT22;671;48.972;9.276;2022-08-26T06:43:47;22.50;99.90
1355;DHT22;671;48.972;9.276;2022-08-26T06:46:19;22.60;99.90
1355;DHT22;671;48.972;9.276;2022-08-26T06:48:47;22.70;99.90
1355;DHT22;671;48.972;9.276;2022-08-26T06:51:20;22.80;99.90
1355;DHT22;671;48.972;9.276;2022-08-26T06:53:49;22.90;99.90
1355;DHT22;671;48.972;9.276;2022-08-26T06:56:20;23.00;99.90
1355;DHT22;671;48.972;9.276;2022-08-26T06:58:47;23.00;99.90
1355;DHT22;671;48.972;9.276;2022-08-26T07:01:16;23.20;99.90
1355;DHT22;671;48.972;9.276;2022-08-26T07:03:43;23.30;99.90
1355;DHT22;671;48.972;9.276;2022-08-26T07:06:11;23.40;99.90
1355;DHT22;671;48.972;9.276;2022-08-26T07:08:37;23.50;99.90
1355;DHT22;671;48.972;9.276;2022-08-26T07:11:09;23.50;99.90
1355;DHT22;671;48.972;9.276;2022-08-26T07:13:36;23.70;99.90
1355;DHT22;671;48.972;9.276;2022-08-26T07:16:04;23.70;99.90
1355;DHT22;671;48.972;9.276;2022-08-26T07:18:33;23.90;99.90
1355;DHT22;671;48.972;9.276;2022-08-26T07:21:01;24.00;99.90
1355;DHT22;671;48.972;9.276;2022-08-26T07:23:28;24.10;99.90
1355;DHT22;671;48.972;9.276;2022-08-26T07:25:54;24.30;99.90
1355;DHT22;671;48.972;9.276;2022-08-26T07:28:21;24.50;99.90
1355;DHT22;671;48.972;9.276;2022-08-26T07:30:48;24.60;99.90
1355;DHT22;671;48.972;9.276;2022-08-26T07:33:14;24.70;99.90
1355;DHT22;671;48.972;9.276;2022-08-26T07:35:43;24.80;99.90
1355;DHT22;671;48.972;9.276;2022-08-26T07:38:10;24.80;99.90
1355;DHT22;671;48.972;9.276;2022-08-26T07:40:38;24.90;99.90
1355;DHT22;671;48.972;9.276;2022-08-26T07:43:06;25.00;99.90
1355;DHT22;671;48.972;9.276;2022-08-26T07:45:33;25.10;99.90
1355;DHT22;671;48.972;9.276;2022-08-26T07:47:59;25.30;99.90
1355;DHT22;671;48.972;9.276;2022-08-26T07:50:26;25.40;99.90
1355;DHT22;671;48.972;9.276;2022-08-26T07:52:53;25.50;99.90
1355;DHT22;671;48.972;9.276;2022-08-26T07:55:19;25.60;99.90
1355;DHT22;671;48.972;9.276;2022-08-26T07:57:48;25.70;99.90
1355;DHT22;671;48.972;9.276;2022-08-26T08:00:16;25.90;99.90
1355;DHT22;671;48.972;9.276;2022-08-26T08:02:43;26.00;99.90
1355;DHT22;671;48.972;9.276;2022-08-26T08:05:11;26.10;99.90
1355;DHT22;671;48.972;9.276;2022-08-26T08:07:38;26.10;99.90
1355;DHT22;671;48.972;9.276;2022-08-26T08:10:06;26.20;99.90
1355;DHT22;671;48.972;9.276;2022-08-26T08:12:32;26.30;99.90
1355;DHT22;671;48.972;9.276;2022-08-26T08:14:59;26.40;99.90
1355;DHT22;671;48.972;9.276;2022-08-26T08:17:26;26.50;99.90
1355;DHT22;671;48.972;9.276;2022-08-26T08:19:52;26.60;99.90
1355;DHT22;671;48.972;9.276;2022-08-26T08:22:19;26.70;99.90
1355;DHT22;671;48.972;9.276;2022-08-26T08:24:48;26.80;99.90
1355;DHT22;671;48.972;9.276;2022-08-26T08:27:15;26.90;99.90
1355;DHT22;671;48.972;9.276;2022-08-26T08:29:41;26.90;99.90
1355;DHT22;671;48.972;9.276;2022-08-26T08:32:09;27.00;99.90
1355;DHT22;671;48.972;9.276;2022-08-26T08:34:36;27.10;99.90
1355;DHT22;671;48.972;9.276;2022-08-26T08:37:04;27.30;99.90
1355;DHT22;671;48.972;9.276;2022-08-26T08:39:31;27.40;99.90
1355;DHT22;671;48.972;9.276;2022-08-26T08:44:51;27.50;99.90
1355;DHT22;671;48.972;9.276;2022-08-26T08:47:31;27.60;99.90
1355;DHT22;671;48.972;9.276;2022-08-26T08:50:05;27.80;99.90
1355;DHT22;671;48.972;9.276;2022-08-26T08:52:35;27.80;99.90
1355;DHT22;671;48.972;9.276;2022-08-26T08:55:05;28.00;99.90
1355;DHT22;671;48.972;9.276;2022-08-26T08:57:56;28.10;99.90
1355;DHT22;671;48.972;9.276;2022-08-26T09:00:26;28.30;99.90
1355;DHT22;671;48.972;9.276;2022-08-26T09:04:00;28.40;99.90
1355;DHT22;671;48.972;9.276;2022-08-26T09:06:17;28.40;99.90
1355;DHT22;671;48.972;9.276;2022-08-26T09:08:47;28.40;99.90
1355;DHT22;671;48.972;9.276;2022-08-26T09:11:15;28.60;99.80
1355;DHT22;671;48.972;9.276;2022-08-26T09:13:53;28.70;99.40
1355;DHT22;671;48.972;9.276;2022-08-26T09:16:26;28.80;98.90
1355;DHT22;671;48.972;9.276;2022-08-26T09:21:25;28.80;98.90
1355;DHT22;671;48.972;9.276;2022-08-26T09:23:54;29.00;98.90
1355;DHT22;671;48.972;9.276;2022-08-26T09:26:40;29.20;98.30
1355;DHT22;671;48.972;9.276;2022-08-26T09:29:19;29.30;98.00
1355;DHT22;671;48.972;9.276;2022-08-26T09:31:46;29.50;97.80
1355;DHT22;671;48.972;9.276;2022-08-26T09:36:47;29.80;97.20
1355;DHT22;671;48.972;9.276;2022-08-26T09:44:58;30.30;96.20
1355;DHT22;671;48.972;9.276;2022-08-26T09:47:32;30.40;96.20
1355;DHT22;671;48.972;9.276;2022-08-26T09:52:30;30.70;95.00
1355;DHT22;671;48.972;9.276;2022-08-26T09:57:30;30.70;94.60
1355;DHT22;671;48.972;9.276;2022-08-26T09:59:57;30.80;94.50
1355;DHT22;671;48.972;9.276;2022-08-26T10:05:01;30.90;94.10
1355;DHT22;671;48.972;9.276;2022-08-26T10:10:16;31.10;94.20
1355;DHT22;671;48.972;9.276;2022-08-26T10:13:07;31.40;94.00
1355;DHT22;671;48.972;9.276;2022-08-26T10:15:57;31.70;93.60
1355;DHT22;671;48.972;9.276;2022-08-26T10:18:30;32.00;93.20
1355;DHT22;671;48.972;9.276;2022-08-26T10:23:31;32.50;92.50
1355;DHT22;671;48.972;9.276;2022-08-26T10:26:17;32.60;91.40
1355;DHT22;671;48.972;9.276;2022-08-26T10:28:55;32.50;91.50
1355;DHT22;671;48.972;9.276;2022-08-26T10:31:33;32.30;90.80
1355;DHT22;671;48.972;9.276;2022-08-26T10:34:00;32.00;90.20
1355;DHT22;671;48.972;9.276;2022-08-26T10:36:33;31.60;90.70
1355;DHT22;671;48.972;9.276;2022-08-26T10:39:27;31.40;91.60
1355;DHT22;671;48.972;9.276;2022-08-26T10:41:59;31.10;92.00
1355;DHT22;671;48.972;9.276;2022-08-26T10:44:31;30.90;90.40
1355;DHT22;671;48.972;9.276;2022-08-26T10:47:29;30.60;90.20
1355;DHT22;671;48.972;9.276;2022-08-26T10:49:58;30.40;90.90
1355;DHT22;671;48.972;9.276;2022-08-26T10:52:59;30.40;91.20
1355;DHT22;671;48.972;9.276;2022-08-26T10:55:58;30.20;90.90
1355;DHT22;671;48.972;9.276;2022-08-26T11:09:57;29.30;93.50
1355;DHT22;671;48.972;9.276;2022-08-26T11:15:00;29.00;94.50
1355;DHT22;671;48.972;9.276;2022-08-26T11:20:45;28.90;95.50
1355;DHT22;671;48.972;9.276;2022-08-26T11:28:44;28.70;96.20
1355;DHT22;671;48.972;9.276;2022-08-26T11:33:54;28.70;96.80
1355;DHT22;671;48.972;9.276;2022-08-26T11:39:03;28.60;97.10
1355;DHT22;671;48.972;9.276;2022-08-26T11:41:30;28.70;97.20
1355;DHT22;671;48.972;9.276;2022-08-26T11:43:58;28.70;96.90
1355;DHT22;671;48.972;9.276;2022-08-26T11:46:27;28.60;97.10
1355;DHT22;671;48.972;9.276;2022-08-26T11:49:03;28.60;97.10
1355;DHT22;671;48.972;9.276;2022-08-26T11:51:32;28.70;97.50
1355;DHT22;671;48.972;9.276;2022-08-26T11:54:18;28.70;96.90
1355;DHT22;671;48.972;9.276;2022-08-26T11:56:47;28.80;97.00
1355;DHT22;671;48.972;9.276;2022-08-26T11:59:25;28.80;97.10
1355;DHT22;671;48.972;9.276;2022-08-26T12:01:55;28.90;97.10
1355;DHT22;671;48.972;9.276;2022-08-26T12:04:28;28.90;96.60
1355;DHT22;671;48.972;9.276;2022-08-26T12:06:56;29.00;96.10
1355;DHT22;671;48.972;9.276;2022-08-26T12:09:33;29.10;95.70
1355;DHT22;671;48.972;9.276;2022-08-26T12:14:40;29.50;95.10
1355;DHT22;671;48.972;9.276;2022-08-26T12:17:18;29.70;94.70
1355;DHT22;671;48.972;9.276;2022-08-26T12:19:51;29.80;92.50
1355;DHT22;671;48.972;9.276;2022-08-26T12:22:27;30.00;91.90
1355;DHT22;671;48.972;9.276;2022-08-26T12:25:00;30.20;91.70
1355;DHT22;671;48.972;9.276;2022-08-26T12:27:32;30.40;92.10
1355;DHT22;671;48.972;9.276;2022-08-26T12:32:44;30.70;91.40
1355;DHT22;671;48.972;9.276;2022-08-26T12:35:16;30.80;91.10
1355;DHT22;671;48.972;9.276;2022-08-26T12:37:49;30.90;90.90
1355;DHT22;671;48.972;9.276;2022-08-26T12:43:03;31.00;90.10
1355;DHT22;671;48.972;9.276;2022-08-26T12:45:54;31.20;90.40
1355;DHT22;671;48.972;9.276;2022-08-26T12:48:28;31.20;89.60
1355;DHT22;671;48.972;9.276;2022-08-26T12:50:55;31.00;90.20
1355;DHT22;671;48.972;9.276;2022-08-26T12:53:24;31.00;90.60
1355;DHT22;671;48.972;9.276;2022-08-26T12:55:56;30.90;90.60
1355;DHT22;671;48.972;9.276;2022-08-26T12:58:36;30.80;90.90
1355;DHT22;671;48.972;9.276;2022-08-26T13:03:39;30.60;91.30
1355;DHT22;671;48.972;9.276;2022-08-26T13:09:03;30.60;91.70
1355;DHT22;671;48.972;9.276;2022-08-26T13:11:33;30.50;91.90
1355;DHT22;671;48.972;9.276;2022-08-26T13:14:06;30.40;92.00
1355;DHT22;671;48.972;9.276;2022-08-26T13:16:33;30.30;91.50
1355;DHT22;671;48.972;9.276;2022-08-26T13:19:03;30.30;91.80
1355;DHT22;671;48.972;9.276;2022-08-26T13:21:32;30.30;92.10
1355;DHT22;671;48.972;9.276;2022-08-26T13:24:09;30.20;92.00
1355;DHT22;671;48.972;9.276;2022-08-26T13:26:38;30.20;91.90
1355;DHT22;671;48.972;9.276;2022-08-26T13:29:05;30.20;91.70
1355;DHT22;671;48.972;9.276;2022-08-26T13:31:32;30.10;91.60
1355;DHT22;671;48.972;9.276;2022-08-26T13:34:01;30.10;91.60
1355;DHT22;671;48.972;9.276;2022-08-26T13:36:29;30.10;91.80
1355;DHT22;671;48.972;9.276;2022-08-26T13:38:55;30.20;92.00
1355;DHT22;671;48.972;9.276;2022-08-26T13:41:22;30.20;91.60
1355;DHT22;671;48.972;9.276;2022-08-26T13:43:48;30.10;91.50
1355;DHT22;671;48.972;9.276;2022-08-26T13:46:15;30.10;91.50
1355;DHT22;671;48.972;9.276;2022-08-26T13:48:41;30.20;91.60
1355;DHT22;671;48.972;9.276;2022-08-26T13:51:08;30.30;91.50
1355;DHT22;671;48.972;9.276;2022-08-26T13:53:34;30.40;91.30
1355;DHT22;671;48.972;9.276;2022-08-26T13:56:01;30.60;91.20
1355;DHT22;671;48.972;9.276;2022-08-26T13:58:28;30.70;90.70
1355;DHT22;671;48.972;9.276;2022-08-26T14:00:55;30.90;90.30
1355;DHT22;671;48.972;9.276;2022-08-26T14:03:23;31.00;90.20
1355;DHT22;671;48.972;9.276;2022-08-26T14:05:52;31.20;90.30
1355;DHT22;671;48.972;9.276;2022-08-26T14:08:20;31.50;90.00
1355;DHT22;671;48.972;9.276;2022-08-26T14:10:47;31.70;89.90
1355;DHT22;671;48.972;9.276;2022-08-26T14:13:14;31.70;88.80
1355;DHT22;671;48.972;9.276;2022-08-26T14:15:41;31.80;89.00
1355;DHT22;671;48.972;9.276;2022-08-26T14:18:09;31.90;88.30
1355;DHT22;671;48.972;9.276;2022-08-26T14:20:37;32.00;88.00
1355;DHT22;671;48.972;9.276;2022-08-26T14:23:04;32.00;87.50
1355;DHT22;671;48.972;9.276;2022-08-26T14:25:30;32.10;87.10
1355;DHT22;671;48.972;9.276;2022-08-26T14:27:58;32.30;87.40
1355;DHT22;671;48.972;9.276;2022-08-26T14:30:26;32.40;87.00
1355;DHT22;671;48.972;9.276;2022-08-26T14:32:55;32.50;86.10
1355;DHT22;671;48.972;9.276;2022-08-26T14:35:24;32.50;85.80
1355;DHT22;671;48.972;9.276;2022-08-26T14:37:51;32.40;85.40
1355;DHT22;671;48.972;9.276;2022-08-26T14:40:20;32.40;85.70
1355;DHT22;671;48.972;9.276;2022-08-26T14:42:49;32.50;83.60
1355;DHT22;671;48.972;9.276;2022-08-26T14:45:20;32.60;85.50
1355;DHT22;671;48.972;9.276;2022-08-26T14:47:48;32.70;85.00
1355;DHT22;671;48.972;9.276;2022-08-26T14:50:19;32.80;84.20
1355;DHT22;671;48.972;9.276;2022-08-26T14:52:47;32.80;83.10
1355;DHT22;671;48.972;9.276;2022-08-26T14:55:35;32.80;83.90
1355;DHT22;671;48.972;9.276;2022-08-26T14:58:02;32.70;82.20
1355;DHT22;671;48.972;9.276;2022-08-26T15:00:29;32.70;81.90
1355;DHT22;671;48.972;9.276;2022-08-26T15:02:56;32.60;82.10
1355;DHT22;671;48.972;9.276;2022-08-26T15:05:23;32.50;79.70
1355;DHT22;671;48.972;9.276;2022-08-26T15:07:52;32.30;80.70
1355;DHT22;671;48.972;9.276;2022-08-26T15:10:18;32.00;80.90
1355;DHT22;671;48.972;9.276;2022-08-26T15:12:45;31.90;82.30
1355;DHT22;671;48.972;9.276;2022-08-26T15:15:13;31.80;81.00
1355;DHT22;671;48.972;9.276;2022-08-26T15:17:40;31.70;80.90
1355;DHT22;671;48.972;9.276;2022-08-26T15:20:08;31.70;81.30
1355;DHT22;671;48.972;9.276;2022-08-26T15:22:37;31.60;81.00
1355;DHT22;671;48.972;9.276;2022-08-26T15:25:05;31.50;81.60
1355;DHT22;671;48.972;9.276;2022-08-26T15:27:32;31.30;80.90
1355;DHT22;671;48.972;9.276;2022-08-26T15:30:04;31.20;81.70
1355;DHT22;671;48.972;9.276;2022-08-26T15:32:31;31.10;81.60
1355;DHT22;671;48.972;9.276;2022-08-26T15:34:57;31.00;81.60
1355;DHT22;671;48.972;9.276;2022-08-26T15:37:24;30.90;82.10
1355;DHT22;671;48.972;9.276;2022-08-26T15:39:50;30.80;82.40
1355;DHT22;671;48.972;9.276;2022-08-26T15:42:18;30.70;82.50
1355;DHT22;671;48.972;9.276;2022-08-26T15:44:46;30.60;81.50
1355;DHT22;671;48.972;9.276;2022-08-26T15:47:12;30.50;81.90
1355;DHT22;671;48.972;9.276;2022-08-26T15:49:39;30.40;81.20
1355;DHT22;671;48.972;9.276;2022-08-26T15:52:06;30.30;81.00
1355;DHT22;671;48.972;9.276;2022-08-26T15:54:33;30.20;81.60
1355;DHT22;671;48.972;9.276;2022-08-26T15:57:01;30.20;81.00
1355;DHT22;671;48.972;9.276;2022-08-26T15:59:28;30.10;82.10
1355;DHT22;671;48.972;9.276;2022-08-26T16:01:58;30.00;82.70
1355;DHT22;671;48.972;9.276;2022-08-26T16:04:25;29.90;82.10
1355;DHT22;671;48.972;9.276;2022-08-26T16:06:53;29.80;82.50
1355;DHT22;671;48.972;9.276;2022-08-26T16:09:21;29.80;82.60
1355;DHT22;671;48.972;9.276;2022-08-26T16:11:48;29.70;83.50
1355;DHT22;671;48.972;9.276;2022-08-26T16:14:15;29.70;83.00
1355;DHT22;671;48.972;9.276;2022-08-26T16:16:42;29.60;83.50
1355;DHT22;671;48.972;9.276;2022-08-26T16:19:09;29.50;85.50
1355;DHT22;671;48.972;9.276;2022-08-26T16:21:37;29.20;89.30
1355;DHT22;671;48.972;9.276;2022-08-26T16:24:05;28.80;90.40
1355;DHT22;671;48.972;9.276;2022-08-26T16:26:34;28.50;90.60
1355;DHT22;671;48.972;9.276;2022-08-26T16:29:04;28.10;91.60
1355;DHT22;671;48.972;9.276;2022-08-26T16:31:31;27.90;92.00
1355;DHT22;671;48.972;9.276;2022-08-26T16:33:58;27.50;92.90
1355;DHT22;671;48.972;9.276;2022-08-26T16:36:25;27.30;93.70
1355;DHT22;671;48.972;9.276;2022-08-26T16:38:52;27.00;94.40
1355;DHT22;671;48.972;9.276;2022-08-26T16:41:22;26.70;95.10
1355;DHT22;671;48.972;9.276;2022-08-26T16:43:49;26.40;95.30
1355;DHT22;671;48.972;9.276;2022-08-26T16:46:20;26.20;95.60
1355;DHT22;671;48.972;9.276;2022-08-26T16:48:48;26.00;96.20
1355;DHT22;671;48.972;9.276;2022-08-26T16:51:17;25.70;96.80
1355;DHT22;671;48.972;9.276;2022-08-26T16:53:45;25.60;97.20
1355;DHT22;671;48.972;9.276;2022-08-26T16:56:13;25.40;97.80
1355;DHT22;671;48.972;9.276;2022-08-26T16:58:40;25.20;98.50
1355;DHT22;671;48.972;9.276;2022-08-26T17:01:07;25.10;98.70
1355;DHT22;671;48.972;9.276;2022-08-26T17:03:33;25.00;98.80
1355;DHT22;671;48.972;9.276;2022-08-26T17:06:01;24.90;98.70
1355;DHT22;671;48.972;9.276;2022-08-26T17:08:27;24.80;98.60
1355;DHT22;671;48.972;9.276;2022-08-26T17:10:54;24.70;98.80
1355;DHT22;671;48.972;9.276;2022-08-26T17:13:20;24.60;99.00
1355;DHT22;671;48.972;9.276;2022-08-26T17:15:48;24.50;98.10
1355;DHT22;671;48.972;9.276;2022-08-26T17:18:25;24.50;98.20
1355;DHT22;671;48.972;9.276;2022-08-26T17:20:52;24.40;97.30
1355;DHT22;671;48.972;9.276;2022-08-26T17:23:19;24.40;97.00
1355;DHT22;671;48.972;9.276;2022-08-26T17:25:46;24.30;96.90
1355;DHT22;671;48.972;9.276;2022-08-26T17:28:13;24.30;96.90
1355;DHT22;671;48.972;9.276;2022-08-26T17:30:40;24.20;97.10
1355;DHT22;671;48.972;9.276;2022-08-26T17:33:06;24.20;97.50
1355;DHT22;671;48.972;9.276;2022-08-26T17:35:33;24.10;97.70
1355;DHT22;671;48.972;9.276;2022-08-26T17:38:00;24.00;98.20
1355;DHT22;671;48.972;9.276;2022-08-26T17:40:27;23.90;98.50
1355;DHT22;671;48.972;9.276;2022-08-26T17:42:57;23.80;99.20
1355;DHT22;671;48.972;9.276;2022-08-26T17:45:26;23.70;99.60
1355;DHT22;671;48.972;9.276;2022-08-26T17:47:54;23.60;99.90